createdAt,value
2019-03-21T00:00:30.266Z,5.53
2019-03-21T00:05:36.902Z,5.97
2019-03-21T00:11:22.978Z,5.43
2019-03-21T00:16:28.145Z,6.03
2019-03-21T00:21:32.722Z,5.50
2019-03-21T00:26:37.363Z,5.07
2019-03-21T00:31:42.131Z,6.10
2019-03-21T00:36:46.796Z,5.53
2019-03-21T00:41:52.334Z,5.27
2019-03-21T00:46:57.987Z,5.23
2019-03-21T00:52:02.845Z,5.63
2019-03-21T00:57:09.143Z,5.30
2019-03-21T01:02:14.980Z,4.73
2019-03-21T01:07:20.474Z,4.60
2019-03-21T01:12:27.012Z,4.80
2019-03-21T01:17:32.497Z,4.37
2019-03-21T01:22:38.510Z,4.20
2019-03-21T01:27:44.251Z,4.43
2019-03-21T01:32:49.961Z,4.47
2019-03-21T01:43:08.493Z,4.27
2019-03-21T01:48:14.101Z,4.60
2019-03-21T01:53:19.645Z,4.53
2019-03-21T01:58:25.114Z,4.30
2019-03-21T02:03:31.129Z,3.80
2019-03-21T02:08:37.004Z,4.70
2019-03-21T02:13:43.452Z,4.70
2019-03-21T02:18:49.285Z,4.90
2019-03-21T02:23:55.294Z,4.47
2019-03-21T02:29:00.582Z,4.30
2019-03-21T02:34:06.197Z,4.70
2019-03-21T02:39:11.571Z,4.50
2019-03-21T02:44:16.824Z,4.33
2019-03-21T02:49:22.433Z,5.40
2019-03-21T02:54:27.813Z,5.10
2019-03-21T02:59:33.048Z,5.10
2019-03-21T03:04:38.589Z,4.87
2019-03-21T03:09:44.430Z,5.00
2019-03-21T03:14:50.790Z,5.33
2019-03-21T03:19:56.748Z,5.00
2019-03-21T03:30:18.094Z,4.77
2019-03-21T03:35:23.659Z,4.73
2019-03-21T03:40:32.532Z,4.90
2019-03-21T03:45:38.669Z,4.73
2019-03-21T03:50:43.619Z,4.40
2019-03-21T03:55:48.309Z,4.47
2019-03-21T04:00:52.472Z,4.60
2019-03-21T04:05:57.124Z,4.67
2019-03-21T04:11:01.746Z,5.20
2019-03-21T04:16:05.722Z,4.10
2019-03-21T04:21:09.676Z,4.63
2019-03-21T04:26:17.514Z,4.70
2019-03-21T04:31:21.410Z,4.40
2019-03-21T04:36:25.412Z,4.13
2019-03-21T04:41:30.231Z,4.17
2019-03-21T04:46:34.871Z,4.70
2019-03-21T04:51:40.875Z,4.40
2019-03-21T04:56:45.693Z,4.80
2019-03-21T05:01:50.934Z,5.50
2019-03-21T05:06:56.557Z,5.10
2019-03-21T05:12:01.563Z,5.77
2019-03-21T05:17:06.673Z,5.60
2019-03-21T05:22:11.289Z,6.00
2019-03-21T05:27:16.168Z,5.73
2019-03-21T05:32:21.936Z,5.80
2019-03-21T05:37:27.746Z,5.83
2019-03-21T05:42:33.386Z,5.50
2019-03-21T05:47:39.434Z,5.43
2019-03-21T05:52:55.157Z,6.07
2019-03-21T05:58:00.752Z,5.87
2019-03-21T06:03:09.566Z,6.30
2019-03-21T06:08:18.934Z,5.30
2019-03-21T06:13:24.741Z,6.33
2019-03-21T06:19:06.760Z,6.67
2019-03-21T06:24:47.165Z,6.10
2019-03-21T06:29:52.806Z,5.80
2019-03-21T06:34:58.437Z,6.97
2019-03-21T06:40:05.644Z,6.60
2019-03-21T06:45:11.743Z,8.00
2019-03-21T06:50:17.252Z,6.80
2019-03-21T06:55:22.971Z,7.37
2019-03-21T07:00:28.678Z,7.20
2019-03-21T07:05:34.272Z,7.30
2019-03-21T07:10:38.298Z,6.67
2019-03-21T07:15:42.546Z,8.00
2019-03-21T07:20:46.448Z,7.17
2019-03-21T07:25:50.487Z,6.90
2019-03-21T07:30:55.641Z,8.60
2019-03-21T07:36:00.904Z,8.33
2019-03-21T07:41:07.284Z,7.67
2019-03-21T07:46:32.173Z,8.20
2019-03-21T07:51:38.716Z,8.10
2019-03-21T07:56:43.416Z,7.90
2019-03-21T08:01:48.494Z,8.60
2019-03-21T08:06:53.290Z,7.83
2019-03-21T08:11:58.165Z,8.10
2019-03-21T08:17:02.973Z,7.77
2019-03-21T08:22:10.058Z,8.73
2019-03-21T08:27:15.874Z,9.90
2019-03-21T08:32:22.869Z,9.77
2019-03-21T08:37:28.428Z,9.80
2019-03-21T08:42:34.173Z,10.87
2019-03-21T08:47:48.588Z,10.60
2019-03-21T08:58:09.990Z,10.93
2019-03-21T09:03:15.408Z,10.23
2019-03-21T09:08:21.559Z,9.30
2019-03-21T09:13:27.281Z,9.57
2019-03-21T09:18:32.992Z,9.60
2019-03-21T09:23:40.187Z,9.90
2019-03-21T09:28:46.400Z,10.20
2019-03-21T09:33:53.724Z,9.33
2019-03-21T09:38:59.459Z,10.07
2019-03-21T09:44:05.787Z,7.70
2019-03-21T09:49:11.448Z,7.60
2019-03-21T09:54:18.271Z,6.40
2019-03-21T09:59:24.119Z,6.17
2019-03-21T10:04:29.979Z,5.30
2019-03-21T10:09:36.053Z,5.40
2019-03-21T10:14:41.670Z,5.20
2019-03-21T10:19:48.495Z,4.87
2019-03-21T10:24:54.490Z,4.53
2019-03-21T10:30:00.522Z,4.17
2019-03-21T10:35:05.936Z,4.23
2019-03-21T10:40:11.517Z,3.90
2019-03-21T10:45:17.190Z,2.40
2019-03-21T10:50:33.738Z,3.13
2019-03-21T10:55:38.622Z,2.60
2019-03-21T11:00:44.187Z,2.80
2019-03-21T11:05:49.882Z,2.70
2019-03-21T11:10:54.737Z,3.37
2019-03-21T11:16:01.734Z,3.20
2019-03-21T11:21:09.391Z,3.33
2019-03-21T11:26:40.012Z,4.07
2019-03-21T11:31:45.302Z,3.60
2019-03-21T11:36:50.942Z,3.30
2019-03-21T11:41:56.789Z,4.00
2019-03-21T11:47:02.956Z,3.10
2019-03-21T11:52:17.809Z,3.23
2019-03-21T11:57:15.334Z,3.03
2019-03-21T12:02:27.148Z,3.53
2019-03-21T12:07:28.547Z,2.90
2019-03-21T12:12:34.987Z,3.13
2019-03-21T12:17:41.330Z,3.10
2019-03-21T12:22:47.454Z,2.60
2019-03-21T12:27:54.089Z,2.90
2019-03-21T12:33:01.261Z,3.33
2019-03-21T12:38:07.160Z,3.37
2019-03-21T12:43:13.043Z,2.90
2019-03-21T12:48:17.919Z,3.50
2019-03-21T12:53:23.617Z,3.33
2019-03-21T12:58:29.657Z,3.00
2019-03-21T13:03:35.623Z,3.10
2019-03-21T13:08:41.141Z,2.57
2019-03-21T13:13:46.430Z,2.93
2019-03-21T13:18:51.992Z,3.53
2019-03-21T13:23:57.611Z,3.23
2019-03-21T13:29:04.700Z,2.80
2019-03-21T13:34:10.488Z,2.93
2019-03-21T13:39:17.797Z,2.67
2019-03-21T13:44:23.666Z,2.83
2019-03-21T13:49:28.384Z,3.13
2019-03-21T13:54:34.575Z,3.10
2019-03-21T13:59:40.454Z,3.17
2019-03-21T14:04:45.942Z,3.00
2019-03-21T14:09:51.818Z,3.27
2019-03-21T14:14:57.358Z,4.00
2019-03-21T14:20:03.376Z,3.70
2019-03-21T14:25:09.337Z,3.93
2019-03-21T14:30:16.794Z,4.30
2019-03-21T14:35:22.983Z,4.37
2019-03-21T14:40:29.061Z,4.20
2019-03-21T14:45:42.764Z,4.53
2019-03-21T14:50:48.877Z,3.70
2019-03-21T14:55:53.599Z,3.97
2019-03-21T15:00:57.730Z,4.00
2019-03-21T15:06:03.228Z,4.50
2019-03-21T15:11:16.903Z,4.10
2019-03-21T15:16:15.907Z,3.60
2019-03-21T15:21:20.877Z,4.00
2019-03-21T15:26:25.875Z,3.43
2019-03-21T15:31:30.687Z,3.43
2019-03-21T15:36:35.411Z,3.53
2019-03-21T15:41:40.573Z,3.53
2019-03-21T15:46:46.020Z,3.50
2019-03-21T15:51:54.821Z,3.00
2019-03-21T15:57:14.899Z,3.80
2019-03-21T16:02:22.687Z,4.80
2019-03-21T16:07:28.733Z,3.30
2019-03-21T16:12:35.543Z,3.87
2019-03-21T16:17:40.994Z,3.13
2019-03-21T16:22:47.625Z,3.33
2019-03-21T16:27:54.262Z,3.33
2019-03-21T16:33:00.440Z,2.90
2019-03-21T16:38:07.210Z,3.13
2019-03-21T16:43:12.717Z,2.70
2019-03-21T16:48:18.262Z,2.63
2019-03-21T16:53:25.083Z,2.47
2019-03-21T16:58:30.510Z,2.30
2019-03-21T17:03:36.699Z,2.20
2019-03-21T17:08:45.240Z,2.50
2019-03-21T17:13:54.328Z,2.13
2019-03-21T17:19:08.504Z,5.37
2019-03-21T17:24:15.113Z,3.97
2019-03-21T17:29:20.581Z,2.40
2019-03-21T17:34:26.990Z,2.43
2019-03-21T17:39:33.166Z,2.53
2019-03-21T17:44:39.095Z,2.30
2019-03-21T17:49:44.876Z,2.43
2019-03-21T17:54:50.434Z,2.40
2019-03-21T17:59:56.317Z,2.40
2019-03-21T18:05:02.284Z,6.60
2019-03-21T18:10:10.802Z,6.80
2019-03-21T18:15:16.619Z,3.10
2019-03-21T18:20:22.093Z,2.63
2019-03-21T18:25:29.975Z,3.50
2019-03-21T18:30:35.657Z,3.30
2019-03-21T18:35:42.134Z,4.03
2019-03-21T18:40:47.766Z,3.30
2019-03-21T18:45:53.562Z,2.43
2019-03-21T18:50:59.186Z,3.37
2019-03-21T18:56:05.730Z,3.73
2019-03-21T19:01:11.354Z,3.63
2019-03-21T19:06:16.805Z,4.23
2019-03-21T19:11:21.702Z,4.93
2019-03-21T19:16:27.390Z,5.53
2019-03-21T19:21:32.533Z,5.30
2019-03-21T19:26:39.133Z,5.57
2019-03-21T19:31:44.449Z,6.17
2019-03-21T19:36:49.575Z,5.67
2019-03-21T19:41:54.492Z,6.00
2019-03-21T19:47:01.444Z,5.20
2019-03-21T19:52:07.352Z,6.10
2019-03-21T19:57:13.287Z,5.33
2019-03-21T20:02:18.884Z,5.50
2019-03-21T20:07:25.407Z,6.20
2019-03-21T20:12:31.253Z,5.53
2019-03-21T20:17:36.520Z,5.57
2019-03-21T20:22:42.704Z,6.13
2019-03-21T20:27:48.388Z,5.23
2019-03-21T20:32:53.953Z,7.67
2019-03-21T20:37:59.889Z,8.43
2019-03-21T20:43:05.393Z,8.67
2019-03-21T20:48:11.277Z,8.67
2019-03-21T20:53:16.762Z,8.30
2019-03-21T20:58:22.957Z,7.30
2019-03-21T21:03:28.554Z,5.93
2019-03-21T21:08:34.292Z,5.50
2019-03-21T21:13:40.100Z,5.70
2019-03-21T21:18:46.120Z,5.47
2019-03-21T21:23:52.487Z,5.37
2019-03-21T21:28:58.402Z,5.97
2019-03-21T21:34:04.198Z,5.40
2019-03-21T21:39:10.074Z,5.80
2019-03-21T21:44:15.604Z,7.60
2019-03-21T21:49:21.114Z,7.33
2019-03-21T21:54:27.578Z,6.70
2019-03-21T21:59:33.641Z,7.03
2019-03-21T22:04:39.199Z,5.93
2019-03-21T22:09:44.245Z,6.20
2019-03-21T22:14:49.977Z,6.00
2019-03-21T22:19:55.778Z,6.27
2019-03-21T22:25:01.553Z,6.07
2019-03-21T22:30:13.274Z,6.23
2019-03-21T22:35:19.332Z,6.00
2019-03-21T22:40:25.565Z,5.80
2019-03-21T22:45:31.274Z,6.57
2019-03-21T22:50:36.713Z,6.40
2019-03-21T22:55:42.307Z,6.53
2019-03-21T23:00:49.763Z,6.00
2019-03-21T23:05:55.252Z,6.73
2019-03-21T23:11:01.147Z,6.17
2019-03-21T23:16:06.868Z,5.93
2019-03-21T23:21:12.241Z,6.90
2019-03-21T23:26:16.951Z,5.97
2019-03-21T23:31:21.657Z,6.80
2019-03-21T23:36:26.717Z,6.50
2019-03-21T23:41:31.463Z,6.30
2019-03-21T23:46:36.066Z,6.20
2019-03-21T23:51:40.695Z,6.77
2019-03-21T23:56:45.307Z,6.13
